Time;durP1;ratioP1;P1;durP2;ratioP2;P2;SDS_P1;SDS_P2;PMS_P1;PMS_P2;Temp;Humidity;BMP_temperature;BMP_pressure;BME280_temperature;BME280_humidity;BME280_pressure;Samples;Min_cycle;Max_cycle;Signal;HPM_P1;HPM_P2
2022/03/11 00:00:24;;;;;;;8.23;4.80;;;;;;;1.04;62.07;99382.81;5087659;28;19924;-80
2022/03/11 00:02:51;;;;;;;9.38;5.70;;;;;;;1.06;63.04;99400.44;5088278;28;20051;-80
2022/03/11 00:05:18;;;;;;;12.88;5.00;;;;;;;0.99;62.81;99396.53;5083043;28;20159;-80
2022/03/11 00:07:44;;;;;;;14.40;7.70;;;;;;;0.84;63.76;99390.56;5085321;28;20039;-80
2022/03/11 00:10:11;;;;;;;8.38;5.32;;;;;;;0.91;64.53;99403.47;5081037;28;20833;-80
2022/03/11 00:12:39;;;;;;;9.32;5.00;;;;;;;0.81;64.68;99406.84;5084380;28;20055;-80
2022/03/11 00:15:07;;;;;;;9.38;5.43;;;;;;;0.65;65.22;99385.75;5086921;28;20052;-80
2022/03/11 00:17:34;;;;;;;9.85;4.50;;;;;;;0.68;64.97;99396.22;5080169;28;20055;-80
2022/03/11 00:20:01;;;;;;;9.98;5.50;;;;;;;0.61;65.15;99392.28;5081396;28;20051;-80
2022/03/11 00:22:28;;;;;;;12.70;5.30;;;;;;;0.60;65.84;99398.59;5083896;28;20118;-80
2022/03/11 00:24:55;;;;;;;9.30;5.40;;;;;;;0.57;65.46;99387.28;5077663;28;20399;-80
2022/03/11 00:27:21;;;;;;;11.70;5.82;;;;;;;0.36;65.66;99387.91;5088895;28;20040;-79
2022/03/11 00:29:50;;;;;;;10.25;5.80;;;;;;;0.34;66.46;99392.53;5084373;28;20040;-80
2022/03/11 00:32:16;;;;;;;9.60;5.78;;;;;;;0.20;66.20;99368.63;5081030;28;20048;-80
2022/03/11 00:34:43;;;;;;;12.57;5.45;;;;;;;0.34;67.19;99389.88;5087780;28;20044;-80
2022/03/11 00:37:09;;;;;;;10.48;5.43;;;;;;;0.44;67.31;99384.69;5081538;28;20044;-80
2022/03/11 00:39:36;;;;;;;11.47;5.87;;;;;;;0.74;67.86;99399.38;5082932;28;20052;-79
2022/03/11 00:42:03;;;;;;;13.48;6.80;;;;;;;1.04;68.08;99386.34;5088024;28;20076;-80
2022/03/11 00:44:30;;;;;;;12.47;6.70;;;;;;;1.31;66.03;99377.13;5086429;28;20054;-80
2022/03/11 00:46:58;;;;;;;11.43;5.55;;;;;;;1.45;65.84;99388.59;5086473;28;20044;-79
2022/03/11 00:49:25;;;;;;;13.75;6.65;;;;;;;1.59;65.19;99388.31;5086412;28;20444;-80
2022/03/11 00:51:53;;;;;;;11.25;6.35;;;;;;;1.72;64.27;99380.16;5080433;28;20058;-80
2022/03/11 00:54:20;;;;;;;16.00;6.65;;;;;;;1.73;64.59;99371.13;5081063;28;20438;-79
2022/03/11 00:56:49;;;;;;;12.50;6.05;;;;;;;1.84;64.57;99381.84;5085940;28;20122;-80
2022/03/11 00:59:15;;;;;;;13.93;6.23;;;;;;;2.03;63.71;99388.41;5087983;28;20570;-80
2022/03/11 01:01:42;;;;;;;13.70;6.80;;;;;;;1.90;64.40;99384.03;5080909;28;20133;-80
2022/03/11 01:04:11;;;;;;;11.77;6.32;;;;;;;1.85;64.78;99385.38;5084312;28;20040;-80
2022/03/11 01:06:38;;;;;;;12.85;6.78;;;;;;;1.87;64.68;99391.50;5087903;28;20066;-80
2022/03/11 01:09:05;;;;;;;12.50;6.57;;;;;;;1.76;64.51;99374.44;5073653;28;20044;-80
2022/03/11 01:11:32;;;;;;;12.60;7.18;;;;;;;1.79;64.58;99375.16;5078418;28;20044;-80
2022/03/11 01:13:58;;;;;;;16.90;8.88;;;;;;;1.87;64.48;99384.28;5083957;28;20435;-80
2022/03/11 01:16:25;;;;;;;14.95;7.82;;;;;;;1.80;64.58;99377.72;5085497;28;20048;-79
2022/03/11 01:18:52;;;;;;;15.45;7.50;;;;;;;1.64;65.94;99372.75;5084153;28;20063;-80
2022/03/11 01:21:19;;;;;;;16.25;7.25;;;;;;;1.68;65.99;99382.22;5086997;28;20055;-79
2022/03/11 01:23:46;;;;;;;13.52;7.60;;;;;;;1.55;66.96;99374.34;5078205;28;20048;-80
2022/03/11 01:26:13;;;;;;;14.05;7.65;;;;;;;1.57;67.46;99391.13;5086416;28;20079;-79
2022/03/11 01:28:42;;;;;;;16.48;7.80;;;;;;;1.53;67.73;99373.56;5077975;28;20098;-80
2022/03/11 01:31:08;;;;;;;18.92;7.85;;;;;;;1.50;68.06;99368.47;5079796;28;20044;-80
2022/03/11 01:33:35;;;;;;;16.13;7.45;;;;;;;1.65;67.18;99378.94;5083871;28;20707;-79
2022/03/11 01:36:01;;;;;;;19.20;9.27;;;;;;;1.53;68.36;99365.53;5084571;28;20495;-80
2022/03/11 01:38:29;;;;;;;21.13;10.38;;;;;;;1.44;68.39;99363.59;5087229;28;20054;-79
2022/03/11 01:40:56;;;;;;;17.30;8.52;;;;;;;1.55;68.82;99358.25;5086685;28;20044;-80
2022/03/11 01:43:22;;;;;;;16.75;9.60;;;;;;;1.67;68.12;99360.91;5087712;28;20054;-79
2022/03/11 01:45:49;;;;;;;19.85;9.52;;;;;;;1.62;68.74;99353.25;5086687;28;20047;-80
2022/03/11 01:48:16;;;;;;;19.08;9.65;;;;;;;1.72;68.29;99362.25;5084945;28;20052;-79
2022/03/11 01:50:43;;;;;;;22.50;10.18;;;;;;;1.74;68.60;99356.75;5096654;28;20091;-80
2022/03/11 01:53:11;;;;;;;21.92;10.80;;;;;;;1.64;67.92;99353.13;5100204;28;20494;-80
2022/03/11 01:55:40;;;;;;;24.02;10.02;;;;;;;1.55;67.75;99339.50;5103139;28;20063;-81
2022/03/11 01:58:08;;;;;;;20.77;10.65;;;;;;;1.66;68.09;99364.59;5100593;28;20071;-80
2022/03/11 02:00:38;;;;;;;19.45;9.82;;;;;;;1.71;67.63;99355.19;5098602;28;20055;-80
2022/03/11 02:03:05;;;;;;;22.02;11.18;;;;;;;1.75;67.24;99364.69;5105659;28;20040;-80
2022/03/11 02:05:33;;;;;;;19.92;10.30;;;;;;;1.73;66.87;99368.44;5093706;28;20056;-80
2022/03/11 02:08:00;;;;;;;22.02;9.88;;;;;;;1.70;66.69;99357.97;5084124;28;20087;-80
2022/03/11 02:10:29;;;;;;;17.55;10.30;;;;;;;1.74;66.45;99360.28;5085558;28;20132;-80
2022/03/11 02:12:57;;;;;;;19.58;10.63;;;;;;;1.65;67.44;99362.88;5082964;28;20040;-80
2022/03/11 02:15:24;;;;;;;25.85;10.95;;;;;;;1.69;66.80;99359.81;5081206;28;20056;-80
2022/03/11 02:17:51;;;;;;;24.95;11.93;;;;;;;1.59;66.83;99353.50;5088411;28;20471;-80
2022/03/11 02:20:17;;;;;;;26.23;11.43;;;;;;;1.62;66.86;99361.28;5077976;28;20052;-80
2022/03/11 02:22:49;;;;;;;23.20;11.68;;;;;;;1.60;67.34;99355.19;5083495;28;20053;-80
2022/03/11 02:25:17;;;;;;;25.05;11.75;;;;;;;1.60;66.55;99344.47;5082437;28;20070;-81
2022/03/11 02:27:46;;;;;;;23.15;10.85;;;;;;;1.56;65.96;99329.63;5077075;28;20051;-80
2022/03/11 02:30:14;;;;;;;21.75;11.15;;;;;;;1.59;65.96;99340.94;5075551;28;20083;-80
2022/03/11 02:32:41;;;;;;;27.17;12.32;;;;;;;1.52;66.65;99345.09;5091673;28;20044;-80
2022/03/11 02:35:09;;;;;;;29.60;12.30;;;;;;;1.49;66.31;99345.34;5083308;28;20040;-80
2022/03/11 02:37:36;;;;;;;21.20;10.63;;;;;;;1.39;66.16;99336.34;5081659;28;20048;-80
2022/03/11 02:40:04;;;;;;;23.67;11.70;;;;;;;1.48;66.36;99351.66;5085154;28;20050;-80
2022/03/11 02:42:32;;;;;;;21.63;11.18;;;;;;;1.38;66.33;99345.34;5083579;28;20383;-80
2022/03/11 02:45:00;;;;;;;21.70;11.40;;;;;;;1.28;66.80;99342.53;5081886;28;20047;-77
2022/03/11 02:47:26;;;;;;;23.80;10.95;;;;;;;1.23;66.85;99358.09;5083750;28;20483;-78
2022/03/11 02:49:53;;;;;;;20.30;10.82;;;;;;;1.23;66.36;99348.28;5080312;28;20051;-78
2022/03/11 02:52:21;;;;;;;20.55;11.20;;;;;;;1.24;65.83;99349.13;5076806;28;20055;-78
2022/03/11 02:54:48;;;;;;;21.10;11.25;;;;;;;1.18;65.63;99341.56;5084625;28;20075;-79
2022/03/11 02:57:15;;;;;;;21.40;10.60;;;;;;;1.21;65.32;99339.47;5085904;28;20047;-78
2022/03/11 02:59:43;;;;;;;25.48;11.63;;;;;;;1.07;65.39;99321.00;5083768;28;20106;-78
2022/03/11 03:02:10;;;;;;;22.30;9.93;;;;;;;1.19;64.58;99344.13;5080074;28;20087;-80
2022/03/11 03:04:38;;;;;;;20.67;10.88;;;;;;;1.12;64.88;99336.69;5086279;28;20381;-79
2022/03/11 03:07:06;;;;;;;21.97;9.97;;;;;;;1.08;65.19;99335.22;5086116;28;20043;-79
2022/03/11 03:09:33;;;;;;;21.38;11.38;;;;;;;0.80;65.88;99330.19;5082203;28;20052;-80
2022/03/11 03:11:59;;;;;;;24.97;11.70;;;;;;;0.92;66.14;99351.63;5081426;28;20502;-79
2022/03/11 03:14:26;;;;;;;22.37;10.27;;;;;;;0.70;66.05;99334.53;5090449;28;20044;-80
2022/03/11 03:16:54;;;;;;;22.63;11.07;;;;;;;0.79;65.88;99349.03;5088232;28;20044;-80
2022/03/11 03:19:20;;;;;;;19.85;9.75;;;;;;;0.69;66.63;99340.84;5086342;28;20059;-79
2022/03/11 03:21:47;;;;;;;19.40;10.82;;;;;;;0.86;64.97;99342.25;5084743;28;20059;-79
2022/03/11 03:24:13;;;;;;;25.25;10.38;;;;;;;0.89;64.13;99339.34;5083899;28;20072;-79
2022/03/11 03:26:40;;;;;;;24.75;11.38;;;;;;;0.92;63.36;99335.56;5090350;28;20048;-79
2022/03/11 03:29:06;;;;;;;20.17;9.73;;;;;;;0.80;63.53;99327.53;5082534;28;20051;-79
2022/03/11 03:31:33;;;;;;;23.03;10.97;;;;;;;0.86;63.88;99336.91;5083497;28;20052;-79
2022/03/11 03:34:01;;;;;;;19.33;10.23;;;;;;;0.79;62.96;99324.97;5087103;28;20056;-79
2022/03/11 03:36:27;;;;;;;24.30;9.23;;;;;;;0.81;63.19;99326.56;5084976;28;20459;-80
2022/03/11 03:38:53;;;;;;;19.40;9.97;;;;;;;0.84;62.65;99333.47;5086091;28;20052;-79
2022/03/11 03:41:20;;;;;;;18.07;9.03;;;;;;;0.86;62.40;99336.91;5087753;28;20060;-79
2022/03/11 03:43:46;;;;;;;19.77;9.80;;;;;;;0.84;62.25;99333.47;5086744;28;20052;-79
2022/03/11 03:46:14;;;;;;;21.40;9.30;;;;;;;0.79;61.80;99330.31;5079894;28;20048;-79
2022/03/11 03:48:41;;;;;;;19.87;9.37;;;;;;;0.72;62.33;99321.03;5083752;28;20423;-79
2022/03/11 03:51:09;;;;;;;19.03;9.00;;;;;;;0.69;62.16;99320.31;5083687;28;20047;-79
2022/03/11 03:53:35;;;;;;;21.83;9.40;;;;;;;0.59;62.06;99319.31;5084286;28;20070;-79
2022/03/11 03:56:02;;;;;;;14.90;8.20;;;;;;;0.56;62.16;99332.94;5089246;28;20048;-79
2022/03/11 03:58:28;;;;;;;20.57;9.03;;;;;;;0.42;62.05;99319.75;5084326;28;20060;-79
2022/03/11 04:00:55;;;;;;;20.43;9.70;;;;;;;0.52;61.31;99323.44;5086461;28;20059;-79
2022/03/11 04:03:22;;;;;;;21.97;9.43;;;;;;;0.55;60.23;99315.16;5085108;28;20044;-79
2022/03/11 04:05:48;;;;;;;17.87;8.63;;;;;;;0.53;60.66;99317.13;5090240;28;20507;-80
2022/03/11 04:08:16;;;;;;;17.47;8.17;;;;;;;0.48;60.07;99316.59;5079563;28;20466;-80
2022/03/11 04:10:42;;;;;;;17.27;8.00;;;;;;;0.50;60.39;99315.53;5088714;28;20063;-79
2022/03/11 04:13:09;;;;;;;20.17;7.70;;;;;;;0.48;59.79;99324.63;5079148;28;20041;-79
2022/03/11 04:15:35;;;;;;;16.97;8.33;;;;;;;0.42;59.82;99319.75;5082990;28;20051;-79
2022/03/11 04:18:02;;;;;;;17.80;7.63;;;;;;;0.44;58.85;99316.00;5089440;28;20463;-79
2022/03/11 04:20:28;;;;;;;15.90;8.73;;;;;;;0.47;58.79;99325.63;5082876;28;20403;-79
2022/03/11 04:22:55;;;;;;;17.47;8.53;;;;;;;0.45;59.10;99323.06;5082090;28;20049;-79
2022/03/11 04:25:23;;;;;;;13.53;7.43;;;;;;;0.34;58.87;99310.47;5085919;28;20052;-79
2022/03/11 04:27:49;;;;;;;18.60;7.77;;;;;;;0.36;58.93;99321.06;5086469;28;20048;-79
2022/03/11 04:30:16;;;;;;;14.63;5.83;;;;;;;0.26;58.08;99320.91;5080200;28;20048;-79
2022/03/11 04:32:42;;;;;;;13.83;7.37;;;;;;;0.28;57.33;99329.66;5081395;28;20048;-79
2022/03/11 04:35:09;;;;;;;16.07;6.63;;;;;;;0.24;58.57;99311.28;5087382;28;20055;-79
2022/03/11 04:37:36;;;;;;;15.80;7.40;;;;;;;0.13;57.77;99314.78;5086153;28;20048;-80
2022/03/11 04:40:03;;;;;;;9.63;5.57;;;;;;;0.14;57.91;99322.69;5089845;28;20056;-79
2022/03/11 04:42:31;;;;;;;12.10;6.13;;;;;;;0.17;57.67;99333.13;5082841;28;20381;-79
2022/03/11 04:44:57;;;;;;;15.30;7.17;;;;;;;0.11;58.21;99327.41;5089957;28;20043;-80
2022/03/11 04:47:24;;;;;;;12.67;6.50;;;;;;;0.02;57.74;99320.09;5081197;28;20071;-79
2022/03/11 04:49:51;;;;;;;17.77;5.93;;;;;;;0.07;57.09;99323.25;5083001;28;20040;-79
2022/03/11 04:52:17;;;;;;;12.23;6.40;;;;;;;0.01;56.96;99307.66;5084620;28;20059;-79
2022/03/11 04:54:44;;;;;;;11.67;5.80;;;;;;;0.03;56.95;99319.09;5084451;28;20049;-79
2022/03/11 04:57:10;;;;;;;12.77;6.53;;;;;;;0.00;56.59;99314.84;5076796;28;20053;-79
2022/03/11 04:59:38;;;;;;;15.60;6.53;;;;;;;-0.08;57.08;99317.22;5080527;28;20047;-79
2022/03/11 05:02:05;;;;;;;11.67;5.60;;;;;;;-0.11;57.11;99312.94;5089219;28;20046;-80
2022/03/11 05:04:31;;;;;;;17.23;7.80;;;;;;;-0.13;56.91;99312.22;5079879;28;20595;-80
2022/03/11 05:06:58;;;;;;;19.77;6.43;;;;;;;-0.19;57.29;99321.53;5090263;28;20044;-80
2022/03/11 05:09:24;;;;;;;9.93;5.67;;;;;;;-0.06;56.63;99328.63;5077228;28;20419;-77
2022/03/11 05:11:51;;;;;;;13.67;6.20;;;;;;;-0.11;56.73;99336.16;5081580;28;20056;-78
2022/03/11 05:14:17;;;;;;;13.17;5.57;;;;;;;-0.26;56.50;99325.59;5079054;28;20411;-80
2022/03/11 05:16:45;;;;;;;12.20;6.07;;;;;;;-0.27;57.12;99318.59;5089031;28;20052;-80
2022/03/11 05:19:14;;;;;;;13.00;5.93;;;;;;;-0.31;56.65;99314.41;5092347;28;20127;-80
2022/03/11 05:21:40;;;;;;;10.80;4.90;;;;;;;-0.28;56.28;99314.19;5083640;28;20049;-80
2022/03/11 05:24:07;;;;;;;10.43;4.87;;;;;;;-0.34;56.02;99303.97;5085251;28;20067;-80
2022/03/11 05:26:34;;;;;;;13.23;5.70;;;;;;;-0.30;55.51;99315.25;5088189;28;20054;-80
2022/03/11 05:29:00;;;;;;;10.27;5.23;;;;;;;-0.31;54.92;99322.44;5089477;28;20051;-80
2022/03/11 05:31:28;;;;;;;12.17;4.80;;;;;;;-0.23;55.24;99336.06;5076882;28;20435;-80
2022/03/11 05:33:56;;;;;;;13.10;5.80;;;;;;;-0.38;55.33;99324.72;5078094;28;20492;-80
2022/03/11 05:36:23;;;;;;;15.00;5.30;;;;;;;-0.30;54.72;99342.84;5090156;28;20052;-80
2022/03/11 05:38:50;;;;;;;11.80;5.57;;;;;;;-0.39;55.53;99354.22;5087760;28;20461;-80
2022/03/11 05:41:16;;;;;;;15.00;5.60;;;;;;;-0.48;55.58;99344.16;5081905;28;20063;-80
2022/03/11 05:43:43;;;;;;;10.03;4.57;;;;;;;-0.45;55.72;99336.81;5081859;28;20048;-80
2022/03/11 05:46:09;;;;;;;14.40;5.77;;;;;;;-0.50;55.51;99348.78;5078824;28;20423;-80
2022/03/11 05:48:36;;;;;;;10.70;4.87;;;;;;;-0.56;57.01;99350.94;5083187;28;20091;-80
2022/03/11 05:51:04;;;;;;;9.83;4.77;;;;;;;-0.73;55.85;99337.91;5080234;28;20036;-80
2022/03/11 05:53:30;;;;;;;10.87;5.10;;;;;;;-0.58;56.11;99357.34;5076622;28;20048;-80
2022/03/11 05:55:57;;;;;;;13.17;5.00;;;;;;;-0.63;56.22;99364.78;5081953;28;20051;-80
2022/03/11 05:58:23;;;;;;;9.83;5.13;;;;;;;-0.67;55.67;99364.16;5089396;28;20047;-80
2022/03/11 06:00:50;;;;;;;10.87;5.93;;;;;;;-0.70;56.69;99367.06;5084410;28;20047;-80
2022/03/11 06:03:16;;;;;;;14.77;5.10;;;;;;;-0.56;55.53;99361.59;5088571;28;20048;-80
2022/03/11 06:05:43;;;;;;;7.63;4.30;;;;;;;-0.58;55.64;99360.00;5083648;28;20150;-80
2022/03/11 06:08:12;;;;;;;8.13;4.83;;;;;;;-0.63;56.23;99352.31;5075571;28;20048;-80
2022/03/11 06:10:38;;;;;;;12.07;5.10;;;;;;;-0.73;56.27;99354.78;5080521;28;20429;-80
2022/03/11 06:13:05;;;;;;;9.23;4.43;;;;;;;-0.66;56.04;99351.66;5086457;28;20044;-80
2022/03/11 06:15:32;;;;;;;10.67;5.37;;;;;;;-0.77;56.73;99347.09;5084143;28;20057;-81
2022/03/11 06:17:59;;;;;;;15.03;5.77;;;;;;;-0.75;55.97;99339.84;5088432;28;20045;-79
2022/03/11 06:20:29;;;;;;;9.80;4.83;;;;;;;-0.57;55.93;99349.22;5092244;28;20402;-80
2022/03/11 06:22:57;;;;;;;12.63;5.37;;;;;;;-0.41;54.88;99337.41;5088156;28;20052;-80
2022/03/11 06:25:25;;;;;;;11.83;5.60;;;;;;;-0.32;54.36;99341.25;5079310;28;20052;-80
2022/03/11 06:27:51;;;;;;;9.30;5.23;;;;;;;-0.18;53.79;99330.41;5083420;28;20052;-79
2022/03/11 06:30:18;;;;;;;12.73;5.50;;;;;;;0.05;53.79;99336.72;5088413;28;20091;-80
2022/03/11 06:32:46;;;;;;;8.80;4.83;;;;;;;0.04;53.58;99334.19;5091020;28;20044;-80
2022/03/11 06:35:15;;;;;;;14.37;4.53;;;;;;;0.20;52.79;99326.72;5080596;28;20463;-80
2022/03/11 06:37:41;;;;;;;10.60;4.97;;;;;;;0.31;52.14;99345.47;5082511;28;20044;-80
2022/03/11 06:40:09;;;;;;;13.17;4.10;;;;;;;0.41;52.32;99339.47;5083149;28;20047;-80
2022/03/11 06:42:38;;;;;;;11.40;5.07;;;;;;;0.35;52.73;99344.28;5080305;28;20059;-80
2022/03/11 06:45:06;;;;;;;10.03;5.17;;;;;;;0.32;52.44;99351.69;5090387;28;20040;-80
2022/03/11 06:47:32;;;;;;;10.63;4.50;;;;;;;0.26;52.34;99350.31;5085516;28;20051;-80
2022/03/11 06:49:59;;;;;;;8.00;4.63;;;;;;;0.35;52.47;99351.47;5091023;28;20036;-80
2022/03/11 06:52:26;;;;;;;8.30;4.47;;;;;;;0.40;52.26;99341.25;5079910;28;20051;-79
2022/03/11 06:54:52;;;;;;;7.03;4.50;;;;;;;0.37;52.40;99344.16;5087687;28;20102;-80
2022/03/11 06:57:19;;;;;;;11.73;4.60;;;;;;;0.41;52.11;99342.13;5090148;28;20052;-80
2022/03/11 06:59:48;;;;;;;9.37;4.63;;;;;;;0.53;51.80;99355.41;5084041;28;20056;-80
2022/03/11 07:02:15;;;;;;;8.55;4.43;;;;;;;0.66;50.73;99360.69;5083284;28;20420;-80
2022/03/11 07:04:42;;;;;;;6.23;4.23;;;;;;;0.64;50.85;99335.84;5086231;28;20049;-79
2022/03/11 07:07:08;;;;;;;8.67;4.67;;;;;;;0.70;51.70;99350.59;5088407;28;20055;-80
2022/03/11 07:09:35;;;;;;;9.93;4.77;;;;;;;0.79;51.06;99365.94;5090905;28;20564;-81
2022/03/11 07:12:03;;;;;;;11.90;5.20;;;;;;;0.90;50.96;99362.44;5086328;28;20549;-80
2022/03/11 07:14:30;;;;;;;10.97;5.27;;;;;;;0.94;50.88;99347.00;5091685;28;20044;-80
2022/03/11 07:16:58;;;;;;;12.67;4.93;;;;;;;1.10;51.27;99360.03;5086247;28;20388;-80
2022/03/11 07:19:24;;;;;;;10.03;4.57;;;;;;;1.02;50.30;99333.88;5083420;28;20407;-81
2022/03/11 07:21:51;;;;;;;9.93;4.73;;;;;;;1.11;50.03;99357.25;5088116;28;20052;-81
2022/03/11 07:24:18;;;;;;;9.50;4.67;;;;;;;1.09;50.77;99348.50;5083256;28;20063;-80
2022/03/11 07:26:44;;;;;;;10.10;4.03;;;;;;;1.21;49.86;99365.44;5088505;28;20135;-82
2022/03/11 07:29:11;;;;;;;13.43;5.03;;;;;;;1.35;50.52;99351.78;5084489;28;20070;-81
2022/03/11 07:31:38;;;;;;;8.43;4.80;;;;;;;1.47;49.88;99347.28;5088890;28;20051;-80
2022/03/11 07:34:06;;;;;;;8.47;4.77;;;;;;;1.54;49.58;99340.47;5091364;28;20381;-81
2022/03/11 07:36:34;;;;;;;12.25;5.65;;;;;;;1.73;49.00;99360.41;5085200;28;20388;-80
2022/03/11 07:39:01;;;;;;;10.32;5.47;;;;;;;1.73;48.32;99350.56;5091577;28;20441;-81
2022/03/11 07:41:28;;;;;;;11.65;4.70;;;;;;;1.89;48.19;99358.19;5089259;28;20073;-81
2022/03/11 07:43:55;;;;;;;14.38;6.18;;;;;;;1.88;47.91;99344.91;5088186;28;20052;-81
2022/03/11 07:46:23;;;;;;;39.53;8.60;;;;;;;2.07;48.19;99361.22;5085574;28;20854;-81
2022/03/11 07:48:50;;;;;;;14.20;5.90;;;;;;;2.11;49.20;99365.34;5081685;28;20052;-81
2022/03/11 07:51:18;;;;;;;12.95;5.50;;;;;;;2.21;49.38;99356.53;5084081;28;20047;-81
2022/03/11 07:53:46;;;;;;;10.18;5.22;;;;;;;2.10;48.57;99336.81;5072659;28;20472;-81
2022/03/11 07:56:14;;;;;;;11.60;6.10;;;;;;;2.32;49.28;99361.00;5077660;28;20047;-81
2022/03/11 07:58:41;;;;;;;10.88;5.07;;;;;;;2.48;48.32;99364.13;5080076;28;20041;-81
2022/03/11 08:01:09;;;;;;;15.40;5.30;;;;;;;2.59;48.74;99366.78;5083413;28;20102;-80
2022/03/11 08:03:36;;;;;;;15.68;5.28;;;;;;;2.64;48.09;99367.22;5086655;28;20047;-81
2022/03/11 08:06:03;;;;;;;11.02;5.45;;;;;;;2.54;48.11;99338.59;5084984;28;20048;-77
2022/03/11 08:08:32;;;;;;;11.15;3.85;;;;;;;2.68;47.77;99351.72;5077293;28;20060;-77
2022/03/11 08:11:04;;;;;;;12.65;5.30;;;;;;;2.82;48.02;99354.06;5082889;28;20047;-81
2022/03/11 08:13:34;;;;;;;18.02;5.68;;;;;;;2.91;47.04;99355.13;5091117;28;20051;-82
2022/03/11 08:16:01;;;;;;;;;;;;;;;2.99;46.71;99363.38;5091162;28;20494;-82
2022/03/11 08:18:28;;;;;;;15.85;5.55;;;;;;;2.89;47.01;99370.53;5084237;28;19934;-82
2022/03/11 08:20:55;;;;;;;9.18;4.72;;;;;;;2.96;47.39;99355.56;5074692;28;20047;-82
2022/03/11 08:23:22;;;;;;;14.35;5.20;;;;;;;3.16;46.26;99361.94;5082749;28;20059;-82
2022/03/11 08:25:50;;;;;;;9.48;5.32;;;;;;;3.22;45.85;99360.53;5082843;28;20041;-82
2022/03/11 08:28:21;;;;;;;14.95;5.10;;;;;;;3.23;44.82;99353.34;5076521;28;20158;-82
2022/03/11 08:30:48;;;;;;;23.35;5.68;;;;;;;3.12;46.72;99339.00;5081227;28;20052;-81
2022/03/11 08:33:20;;;;;;;10.55;5.63;;;;;;;3.31;47.12;99334.69;5092693;28;20036;-81
2022/03/11 08:35:49;;;;;;;15.05;5.68;;;;;;;3.43;45.19;99335.47;5090319;28;20048;-82
2022/03/11 08:38:16;;;;;;;11.23;5.57;;;;;;;3.45;45.12;99347.78;5083590;28;20044;-82
2022/03/11 08:40:43;;;;;;;8.00;4.82;;;;;;;3.48;45.37;99347.53;5084345;28;20063;-82
2022/03/11 08:43:12;;;;;;;9.32;4.72;;;;;;;3.55;46.06;99355.88;5087400;28;20074;-82
2022/03/11 08:45:38;;;;;;;11.18;5.18;;;;;;;3.64;45.64;99340.78;5081305;28;20036;-82
2022/03/11 08:48:06;;;;;;;12.32;5.38;;;;;;;3.68;45.92;99347.59;5088906;28;20110;-82
2022/03/11 08:50:33;;;;;;;12.32;5.60;;;;;;;3.74;44.84;99347.03;5085794;28;20131;-82
2022/03/11 08:53:00;;;;;;;12.10;5.97;;;;;;;3.81;45.30;99350.91;5076902;28;20047;-82
2022/03/11 08:55:29;;;;;;;15.82;5.78;;;;;;;3.86;45.24;99318.22;5080589;28;20123;-82
2022/03/11 08:57:56;;;;;;;10.88;5.07;;;;;;;4.07;45.70;99334.25;5087733;28;20547;-82
2022/03/11 09:00:25;;;;;;;8.43;4.85;;;;;;;4.15;45.11;99344.31;5081850;28;20155;-82
2022/03/11 09:02:52;;;;;;;10.82;5.43;;;;;;;4.14;45.31;99332.69;5088708;28;20047;-82
2022/03/11 09:05:20;;;;;;;11.45;5.35;;;;;;;4.20;44.65;99342.03;5073977;28;20468;-82
2022/03/11 09:07:49;;;;;;;10.82;5.90;;;;;;;4.33;45.17;99345.31;5081471;28;20077;-82
2022/03/11 09:10:19;;;;;;;10.15;5.00;;;;;;;4.19;45.07;99322.34;5089485;28;20094;-82
2022/03/11 09:12:46;;;;;;;;;;;;;;;4.49;44.53;99333.16;5084310;28;20060;-82
2022/03/11 09:15:13;;;;;;;12.88;5.70;;;;;;;4.50;44.75;99321.38;5084425;28;19927;-81
2022/03/11 09:17:42;;;;;;;9.93;5.75;;;;;;;4.55;43.39;99333.44;5084848;28;20048;-81
2022/03/11 09:20:09;;;;;;;8.90;5.03;;;;;;;4.62;44.62;99314.84;5086596;28;20044;-81
2022/03/11 09:22:36;;;;;;;8.45;4.50;;;;;;;4.59;44.09;99310.63;5087370;28;20063;-81
2022/03/11 09:25:07;;;;;;;14.30;5.60;;;;;;;4.75;44.23;99310.00;5070259;28;20131;-81
2022/03/11 09:27:34;;;;;;;15.80;5.43;;;;;;;4.87;44.62;99312.56;5083495;28;20079;-82
2022/03/11 09:30:01;;;;;;;12.27;5.40;;;;;;;4.95;43.80;99313.53;5079993;28;20044;-82
2022/03/11 09:32:27;;;;;;;14.15;5.30;;;;;;;4.92;43.77;99304.88;5080660;28;20044;-82
2022/03/11 09:34:57;;;;;;;15.50;5.90;;;;;;;4.94;43.71;99300.22;5087432;28;20411;-82
2022/03/11 09:37:24;;;;;;;9.40;5.50;;;;;;;5.06;43.61;99290.09;5073421;28;20044;-82
2022/03/11 09:39:53;;;;;;;11.05;5.60;;;;;;;5.14;44.02;99296.44;5088832;28;20075;-82
2022/03/11 09:42:20;;;;;;;17.65;5.95;;;;;;;5.19;44.12;99281.69;5082348;28;20056;-82
2022/03/11 09:44:51;;;;;;;14.32;5.53;;;;;;;5.31;43.64;99278.69;5073338;28;20115;-82
2022/03/11 09:47:19;;;;;;;9.50;5.28;;;;;;;5.54;43.77;99285.50;5084345;28;20052;-82
2022/03/11 09:49:46;;;;;;;11.82;6.22;;;;;;;5.58;43.55;99297.69;5080778;28;20071;-82
2022/03/11 09:52:15;;;;;;;18.00;5.22;;;;;;;5.75;44.64;99280.72;5084926;28;20040;-82
2022/03/11 09:54:42;;;;;;;11.80;7.65;;;;;;;5.69;42.64;99246.25;5087333;28;20050;-82
2022/03/11 09:57:11;;;;;;;12.55;5.45;;;;;;;5.74;43.81;99246.66;5083885;28;20048;-82
2022/03/11 09:59:39;;;;;;;12.68;5.93;;;;;;;5.96;44.14;99258.00;5087676;28;20143;-81
2022/03/11 10:02:12;;;;;;;14.70;5.45;;;;;;;5.97;43.36;99244.38;5078493;28;20067;-81
2022/03/11 10:04:49;;;;;;;12.20;5.95;;;;;;;6.10;43.49;99264.75;5081031;28;20047;-81
2022/03/11 10:07:36;;;;;;;10.68;5.95;;;;;;;6.32;42.51;99271.53;5094383;28;20052;-81
2022/03/11 10:10:13;;;;;;;8.35;4.90;;;;;;;6.29;42.50;99266.44;5078176;28;20076;-81
2022/03/11 10:12:42;;;;;;;11.50;6.13;;;;;;;6.36;42.11;99260.25;5088476;28;20047;-81
2022/03/11 10:15:11;;;;;;;13.00;5.80;;;;;;;6.35;42.24;99247.78;5080122;28;20036;-81
2022/03/11 10:17:40;;;;;;;12.20;5.50;;;;;;;6.50;42.00;99266.97;5092966;28;20048;-82
2022/03/11 10:20:08;;;;;;;11.40;5.50;;;;;;;6.51;42.14;99265.97;5088495;28;20044;-82
2022/03/11 10:22:37;;;;;;;10.43;5.22;;;;;;;6.57;42.27;99253.69;5086808;28;20052;-82
2022/03/11 10:25:09;;;;;;;13.88;5.90;;;;;;;6.71;43.13;99261.22;5083637;28;20103;-81
2022/03/11 10:27:53;;;;;;;12.55;5.95;;;;;;;6.85;41.91;99258.94;5089104;28;20052;-81
2022/03/11 10:30:24;;;;;;;12.52;6.18;;;;;;;6.85;41.61;99250.81;5092092;28;20055;-81
2022/03/11 10:32:52;;;;;;;15.00;6.95;;;;;;;6.89;42.48;99238.69;5087070;28;20040;-81
2022/03/11 10:35:19;;;;;;;10.88;5.45;;;;;;;7.04;40.95;99247.91;5086790;28;20402;-82
2022/03/11 10:38:02;;;;;;;15.18;5.30;;;;;;;7.22;41.90;99250.53;5088584;28;20048;-81
2022/03/11 10:40:30;;;;;;;12.65;5.80;;;;;;;7.32;41.88;99236.06;5084689;28;20045;-82
2022/03/11 10:43:16;;;;;;;11.27;5.30;;;;;;;7.35;42.11;99246.56;5090121;28;20124;-82
2022/03/11 10:45:47;;;;;;;12.25;5.78;;;;;;;7.44;40.54;99232.06;5084554;28;20059;-82
2022/03/11 10:48:14;;;;;;;9.25;5.75;;;;;;;7.58;41.80;99247.66;5085294;28;20048;-83
2022/03/11 10:50:41;;;;;;;18.75;5.95;;;;;;;7.52;41.05;99228.53;5081526;28;20048;-83
2022/03/11 10:53:14;;;;;;;12.00;6.03;;;;;;;7.73;40.88;99245.16;5084249;28;20532;-82
2022/03/11 10:55:45;;;;;;;10.90;5.45;;;;;;;7.78;41.22;99236.56;5088536;28;20063;-81
2022/03/11 10:58:16;;;;;;;12.20;5.97;;;;;;;7.83;40.94;99249.59;5089236;28;20058;-82
2022/03/11 11:00:43;;;;;;;12.70;6.13;;;;;;;7.96;41.89;99237.28;5085690;28;20048;-83
2022/03/11 11:03:12;;;;;;;16.65;5.68;;;;;;;8.10;41.32;99240.34;5080658;28;20051;-82
2022/03/11 11:05:39;;;;;;;17.15;6.55;;;;;;;8.18;41.09;99228.69;5088369;28;20127;-82
2022/03/11 11:08:08;;;;;;;13.57;6.05;;;;;;;8.28;41.12;99202.25;5080229;28;20055;-82
2022/03/11 11:10:38;;;;;;;15.20;6.18;;;;;;;8.58;41.04;99229.72;5082785;28;20055;-83
2022/03/11 11:13:06;;;;;;;16.65;5.80;;;;;;;8.40;40.19;99203.66;5083089;28;20543;-82
2022/03/11 11:15:33;;;;;;;20.13;6.68;;;;;;;8.60;40.73;99222.28;5086309;28;20044;-82
2022/03/11 11:18:07;;;;;;;12.35;5.95;;;;;;;8.50;39.42;99209.75;5090430;28;20040;-82
2022/03/11 11:20:42;;;;;;;13.40;5.88;;;;;;;8.73;39.86;99210.91;5081940;28;20067;-82
2022/03/11 11:23:09;;;;;;;9.95;5.57;;;;;;;8.82;39.93;99221.59;5090784;28;20048;-82
2022/03/11 11:25:38;;;;;;;13.52;6.22;;;;;;;8.99;39.51;99210.69;5086794;28;20064;-82
2022/03/11 11:28:18;;;;;;;11.82;6.05;;;;;;;9.00;39.96;99188.84;5078092;28;20036;-82
2022/03/11 11:30:46;;;;;;;14.55;6.30;;;;;;;9.24;39.35;99199.75;5084495;28;20045;-82
2022/03/11 11:33:14;;;;;;;11.82;6.30;;;;;;;9.32;39.06;99195.16;5087257;28;20102;-82
2022/03/11 11:35:43;;;;;;;14.73;6.28;;;;;;;9.42;38.45;99189.50;5082346;28;20052;-81